createdAt,value
2023-05-02T00:00:50.719Z,40.80
2023-05-02T00:03:17.815Z,30.50
2023-05-02T00:05:44.708Z,22.60
2023-05-02T00:08:12.226Z,21.00
2023-05-02T00:10:39.212Z,30.20
2023-05-02T00:13:06.036Z,20.10
2023-05-02T00:15:33.929Z,25.10
2023-05-02T00:18:00.987Z,30.50
2023-05-02T00:20:28.103Z,34.60
2023-05-02T00:22:56.652Z,37.20
2023-05-02T00:25:23.549Z,44.90
2023-05-02T00:27:50.534Z,50.20
2023-05-02T00:30:17.891Z,31.90
2023-05-02T00:32:45.156Z,24.70
2023-05-02T00:35:12.078Z,24.30
2023-05-02T00:37:39.421Z,24.00
2023-05-02T00:40:08.319Z,20.20
2023-05-02T00:42:35.815Z,24.30
2023-05-02T00:45:05.933Z,20.20
2023-05-02T00:47:34.362Z,17.70
2023-05-02T00:50:02.208Z,18.20
2023-05-02T00:52:29.534Z,20.50
2023-05-02T00:54:57.091Z,25.90
2023-05-02T00:57:24.958Z,28.20
2023-05-02T00:59:51.779Z,18.90
2023-05-02T01:02:40.388Z,26.60
2023-05-02T01:05:44.793Z,34.40
2023-05-02T01:08:39.979Z,38.10
2023-05-02T01:11:17.735Z,24.60
2023-05-02T01:13:45.199Z,45.20
2023-05-02T01:16:12.727Z,38.30
2023-05-02T01:18:41.270Z,28.70
2023-05-02T01:21:09.484Z,22.60
2023-05-02T01:24:02.085Z,25.60
2023-05-02T01:26:34.150Z,21.00
2023-05-02T01:29:07.918Z,23.40
2023-05-02T01:31:36.916Z,25.30
2023-05-02T01:34:05.226Z,16.30
2023-05-02T01:36:32.200Z,15.60
2023-05-02T01:38:59.958Z,23.40
2023-05-02T01:41:27.628Z,19.00
2023-05-02T01:43:56.650Z,19.90
2023-05-02T01:46:25.909Z,15.00
2023-05-02T01:48:52.738Z,16.50
2023-05-02T01:51:19.677Z,20.00
2023-05-02T01:53:48.567Z,19.10
2023-05-02T01:56:16.952Z,21.90
2023-05-02T01:58:43.756Z,16.10
2023-05-02T02:01:10.840Z,20.40
2023-05-02T02:03:37.615Z,20.70
2023-05-02T02:06:04.715Z,26.50
2023-05-02T02:08:31.772Z,37.60
2023-05-02T02:11:00.099Z,35.40
2023-05-02T02:13:32.810Z,22.10
2023-05-02T02:16:01.925Z,25.70
2023-05-02T02:18:28.992Z,23.00
2023-05-02T02:20:56.734Z,26.40
2023-05-02T02:23:26.186Z,36.90
2023-05-02T02:25:53.150Z,41.00
2023-05-02T02:28:19.917Z,36.70
2023-05-02T02:30:46.728Z,33.20
2023-05-02T02:33:13.993Z,22.80
2023-05-02T02:35:42.676Z,27.00
2023-05-02T02:38:34.453Z,22.30
2023-05-02T02:41:11.268Z,20.00
2023-05-02T02:43:44.083Z,21.10
2023-05-02T02:46:34.232Z,20.00
2023-05-02T02:49:14.325Z,26.30
2023-05-02T02:51:46.354Z,35.90
2023-05-02T02:54:26.390Z,24.50
2023-05-02T02:57:02.226Z,24.80
2023-05-02T02:59:33.672Z,16.30
2023-05-02T03:02:07.913Z,15.20
2023-05-02T03:04:38.707Z,14.00
2023-05-02T03:07:05.565Z,17.10
2023-05-02T03:09:46.461Z,21.40
2023-05-02T03:12:16.722Z,18.00
2023-05-02T03:14:43.878Z,14.20
2023-05-02T03:17:11.537Z,23.40
2023-05-02T03:19:38.580Z,16.30
2023-05-02T03:22:05.810Z,18.20
2023-05-02T03:24:34.241Z,19.40
2023-05-02T03:27:01.539Z,13.70
2023-05-02T03:29:30.898Z,13.50
2023-05-02T03:31:57.820Z,19.10
2023-05-02T03:34:25.216Z,21.90
2023-05-02T03:36:52.421Z,13.50
2023-05-02T03:39:20.379Z,14.30
2023-05-02T03:41:48.118Z,17.80
2023-05-02T03:44:16.854Z,16.00
2023-05-02T03:46:44.312Z,10.00
2023-05-02T03:49:11.515Z,16.30
2023-05-02T03:51:39.559Z,8.30
2023-05-02T03:54:06.999Z,21.60
2023-05-02T03:56:35.994Z,12.90
2023-05-02T04:01:41.433Z,19.60
2023-05-02T04:04:10.862Z,25.80
2023-05-02T04:06:44.218Z,17.80
2023-05-02T04:09:11.072Z,8.80
2023-05-02T04:11:44.149Z,13.80
2023-05-02T04:16:39.879Z,14.40
2023-05-02T04:19:06.899Z,11.90
2023-05-02T04:21:36.669Z,8.20
2023-05-02T04:24:04.923Z,29.40
2023-05-02T04:26:32.269Z,8.50
2023-05-02T04:29:04.552Z,12.20
2023-05-02T04:31:32.398Z,6.70
2023-05-02T04:33:59.811Z,6.90
2023-05-02T04:36:29.865Z,8.40
2023-05-02T04:38:56.978Z,7.20
2023-05-02T04:41:23.777Z,7.10
2023-05-02T04:43:56.678Z,4.40
2023-05-02T04:46:23.544Z,8.80
2023-05-02T04:48:50.985Z,5.80
2023-05-02T04:51:17.702Z,7.90
2023-05-02T04:53:47.803Z,8.00
2023-05-02T04:56:14.925Z,10.00
2023-05-02T04:58:42.774Z,8.40
2023-05-02T05:01:10.755Z,9.60
2023-05-02T05:03:38.226Z,8.90
2023-05-02T05:06:06.668Z,3.70
2023-05-02T05:08:34.462Z,4.70
2023-05-02T05:11:01.299Z,5.40
2023-05-02T05:13:28.529Z,8.70
2023-05-02T05:15:55.970Z,7.30
2023-05-02T05:18:26.458Z,6.50
2023-05-02T05:20:53.437Z,3.60
2023-05-02T05:23:20.262Z,12.00
2023-05-02T05:25:47.495Z,9.20
2023-05-02T05:28:17.886Z,8.60
2023-05-02T05:30:44.647Z,19.00
2023-05-02T05:33:15.487Z,22.90
2023-05-02T05:35:42.957Z,12.00
2023-05-02T05:38:09.997Z,3.70
2023-05-02T05:40:38.776Z,7.50
2023-05-02T05:43:07.672Z,12.70
2023-05-02T05:45:37.406Z,4.50
2023-05-02T05:48:05.869Z,3.10
2023-05-02T05:50:37.822Z,8.50
2023-05-02T05:53:04.771Z,10.10
2023-05-02T05:55:32.021Z,7.60
2023-05-02T05:57:59.512Z,6.90
2023-05-02T06:00:26.630Z,7.30
2023-05-02T06:02:53.837Z,6.20
2023-05-02T06:05:33.217Z,6.30
2023-05-02T06:08:00.400Z,7.40
2023-05-02T06:10:27.132Z,7.10
2023-05-02T06:12:54.119Z,9.60
2023-05-02T06:15:24.883Z,3.20
2023-05-02T06:17:51.859Z,6.90
2023-05-02T06:20:18.956Z,7.50
2023-05-02T06:22:45.840Z,2.80
2023-05-02T06:25:13.314Z,3.00
2023-05-02T06:27:40.308Z,14.20
2023-05-02T06:30:07.986Z,8.20
2023-05-02T06:32:35.688Z,6.70
2023-05-02T06:35:02.586Z,9.60
2023-05-02T06:37:35.005Z,6.30
2023-05-02T06:40:02.748Z,3.50
2023-05-02T06:42:30.498Z,4.40
2023-05-02T06:44:57.541Z,4.20
2023-05-02T06:47:27.644Z,4.70
2023-05-02T06:49:55.289Z,5.90
2023-05-02T06:52:22.048Z,18.50
2023-05-02T06:54:49.100Z,5.10
2023-05-02T06:57:15.839Z,4.60
2023-05-02T06:59:42.724Z,4.40
2023-05-02T07:02:10.743Z,17.80
2023-05-02T07:04:37.611Z,7.90
2023-05-02T07:07:05.043Z,7.70
2023-05-02T07:09:32.407Z,4.80
2023-05-02T07:12:00.324Z,7.00
2023-05-02T07:14:28.637Z,4.70
2023-05-02T07:16:55.454Z,9.10
2023-05-02T07:19:22.360Z,4.90
2023-05-02T07:21:49.547Z,7.60
2023-05-02T07:24:16.307Z,6.80
2023-05-02T07:26:43.066Z,6.50
2023-05-02T07:29:10.007Z,4.90
2023-05-02T07:31:36.929Z,7.20
2023-05-02T07:34:03.868Z,8.90
2023-05-02T07:36:32.276Z,11.50
2023-05-02T07:38:59.076Z,4.30
2023-05-02T07:41:25.885Z,4.10
2023-05-02T07:43:52.804Z,4.00
2023-05-02T07:46:19.949Z,4.70
2023-05-02T07:48:46.921Z,7.50
2023-05-02T07:51:13.697Z,4.60
2023-05-02T07:53:40.968Z,13.00
2023-05-02T07:56:08.231Z,11.00
2023-05-02T07:58:36.583Z,3.70
2023-05-02T08:01:03.913Z,6.30
2023-05-02T08:03:31.002Z,3.00
2023-05-02T08:05:57.906Z,6.90
2023-05-02T08:08:24.685Z,5.90
2023-05-02T08:10:51.429Z,6.80
2023-05-02T08:13:18.545Z,3.30
2023-05-02T08:15:45.459Z,9.80
2023-05-02T08:18:12.354Z,4.10
2023-05-02T08:20:39.081Z,5.90
2023-05-02T08:23:05.793Z,2.80
2023-05-02T08:25:32.748Z,12.30
2023-05-02T08:27:59.508Z,3.90
2023-05-02T08:30:26.261Z,4.30
2023-05-02T08:32:53.078Z,5.60
2023-05-02T08:35:20.740Z,6.10
2023-05-02T08:37:47.529Z,6.10
2023-05-02T08:40:14.458Z,7.30
2023-05-02T08:42:43.302Z,5.50
2023-05-02T08:45:11.049Z,3.40
2023-05-02T08:50:06.169Z,4.40
2023-05-02T08:52:33.575Z,9.60
2023-05-02T08:55:01.081Z,3.50
2023-05-02T08:57:31.199Z,7.20
2023-05-02T08:59:58.350Z,4.60
2023-05-02T09:02:55.605Z,5.30
2023-05-02T09:05:23.536Z,5.20
2023-05-02T09:07:51.047Z,4.20
2023-05-02T09:10:17.734Z,7.50
2023-05-02T09:12:45.872Z,7.10
2023-05-02T09:15:19.006Z,4.60
2023-05-02T09:17:47.928Z,5.00
2023-05-02T09:20:15.694Z,6.90
2023-05-02T09:22:50.458Z,5.40
2023-05-02T09:25:17.943Z,2.70
2023-05-02T09:27:55.352Z,11.80
2023-05-02T09:30:23.957Z,4.70
2023-05-02T09:32:51.226Z,6.30
2023-05-02T09:35:27.926Z,20.40
2023-05-02T09:37:57.561Z,2.70
2023-05-02T09:40:24.894Z,5.80
2023-05-02T09:42:52.018Z,10.70
2023-05-02T09:45:22.952Z,6.50
2023-05-02T09:47:50.561Z,5.10
2023-05-02T09:50:43.870Z,4.20
2023-05-02T09:53:11.457Z,2.70
2023-05-02T09:55:39.210Z,4.30
2023-05-02T09:58:06.118Z,3.10
2023-05-02T10:00:43.026Z,4.40
2023-05-02T10:03:10.018Z,4.20
2023-05-02T10:05:38.417Z,7.90
2023-05-02T10:10:34.181Z,10.30
2023-05-02T10:13:01.550Z,3.10
2023-05-02T10:15:29.326Z,3.90
2023-05-02T10:17:56.117Z,3.00
2023-05-02T10:20:23.047Z,4.20
2023-05-02T10:22:50.218Z,14.50
2023-05-02T10:25:17.027Z,9.60
2023-05-02T10:27:44.436Z,9.70
2023-05-02T10:30:12.568Z,9.80
2023-05-02T10:32:40.126Z,4.10
2023-05-02T10:35:07.829Z,2.60
2023-05-02T10:37:35.959Z,6.30
2023-05-02T10:40:02.834Z,5.90
2023-05-02T10:42:29.835Z,3.10
2023-05-02T10:44:57.253Z,2.30
2023-05-02T10:47:26.258Z,4.70
2023-05-02T10:50:01.973Z,9.00
2023-05-02T10:52:37.625Z,4.50
2023-05-02T10:55:18.314Z,9.10
2023-05-02T10:57:58.172Z,6.80
2023-05-02T11:00:26.033Z,5.50
2023-05-02T11:02:52.949Z,3.20
2023-05-02T11:05:21.523Z,4.60
2023-05-02T11:07:48.280Z,11.50
2023-05-02T11:10:17.910Z,8.50
2023-05-02T11:12:48.686Z,6.70
2023-05-02T11:15:22.497Z,1.80
2023-05-02T11:18:00.928Z,6.30
2023-05-02T11:20:28.314Z,2.90
2023-05-02T11:22:56.413Z,12.40
2023-05-02T11:25:36.900Z,3.20
2023-05-02T11:28:05.881Z,22.50
2023-05-02T11:30:43.340Z,6.40
2023-05-02T11:33:11.416Z,3.00
2023-05-02T11:35:41.058Z,5.10
2023-05-02T11:38:12.288Z,6.30
2023-05-02T11:40:39.011Z,4.60
2023-05-02T11:43:13.297Z,3.50
2023-05-02T11:45:41.700Z,7.40
2023-05-02T11:48:08.989Z,7.40
2023-05-02T11:50:48.790Z,5.00
2023-05-02T11:53:39.955Z,5.10
2023-05-02T11:56:08.349Z,5.20
2023-05-02T11:58:35.500Z,11.50
2023-05-02T12:01:15.123Z,2.30
2023-05-02T12:03:42.617Z,7.40
2023-05-02T12:06:14.883Z,15.00
2023-05-02T12:08:43.051Z,6.20
2023-05-02T12:11:12.479Z,2.10
2023-05-02T12:13:47.781Z,13.30
2023-05-02T12:16:15.392Z,7.20
2023-05-02T12:18:42.494Z,3.10
2023-05-02T12:21:09.323Z,4.30
2023-05-02T12:23:37.427Z,4.70
2023-05-02T12:26:18.022Z,7.20
2023-05-02T12:28:50.263Z,6.40
2023-05-02T12:31:17.157Z,5.40
2023-05-02T12:33:47.587Z,4.50
2023-05-02T12:36:14.304Z,3.90
2023-05-02T12:38:42.531Z,3.30
2023-05-02T12:41:09.291Z,4.40
2023-05-02T12:43:49.042Z,5.30
2023-05-02T12:46:16.021Z,6.30
2023-05-02T12:48:44.221Z,9.50
2023-05-02T12:51:22.944Z,5.20
2023-05-02T12:53:49.852Z,4.80
2023-05-02T12:56:16.804Z,6.80
2023-05-02T12:58:45.223Z,4.40
2023-05-02T13:01:13.370Z,3.40
2023-05-02T13:03:41.388Z,6.20
2023-05-02T13:06:08.193Z,5.80
2023-05-02T13:08:35.729Z,3.60
2023-05-02T13:11:03.290Z,5.40
2023-05-02T13:13:30.526Z,3.20
2023-05-02T13:15:57.532Z,3.10
2023-05-02T13:18:24.593Z,3.80
2023-05-02T13:20:51.338Z,3.50
2023-05-02T13:23:18.681Z,7.60
2023-05-02T13:25:45.736Z,7.80
2023-05-02T13:28:12.569Z,4.80
2023-05-02T13:30:39.597Z,5.30
2023-05-02T13:33:06.632Z,10.00
2023-05-02T13:35:35.409Z,7.50
2023-05-02T13:38:03.135Z,4.50
2023-05-02T13:40:30.051Z,6.20
2023-05-02T13:42:57.058Z,7.00
2023-05-02T13:45:23.838Z,8.80
2023-05-02T13:47:50.743Z,5.30
2023-05-02T13:50:17.478Z,8.50
2023-05-02T13:52:45.926Z,5.60
2023-05-02T13:55:13.943Z,5.40
2023-05-02T13:57:40.672Z,4.60
2023-05-02T14:00:09.296Z,17.10
2023-05-02T14:02:36.878Z,5.40
2023-05-02T14:05:04.821Z,10.70
2023-05-02T14:07:32.581Z,5.40
2023-05-02T14:09:59.619Z,4.90
2023-05-02T14:12:26.949Z,5.80
2023-05-02T14:14:53.708Z,3.00
2023-05-02T14:17:21.167Z,6.80
2023-05-02T14:19:48.494Z,3.70
2023-05-02T14:22:15.633Z,4.90
2023-05-02T14:24:42.570Z,9.10
2023-05-02T14:27:12.496Z,3.20
2023-05-02T14:29:39.777Z,7.40
2023-05-02T14:32:06.694Z,5.80
2023-05-02T14:34:34.409Z,7.40
2023-05-02T14:37:01.364Z,14.20
2023-05-02T14:39:28.284Z,5.30
2023-05-02T14:41:55.261Z,11.00
2023-05-02T14:44:22.069Z,6.30
2023-05-02T14:46:48.873Z,13.00
2023-05-02T14:49:16.099Z,12.60
2023-05-02T14:51:46.660Z,14.00
2023-05-02T14:54:15.034Z,1.60
2023-05-02T14:56:43.134Z,7.70
2023-05-02T15:01:37.094Z,4.20
2023-05-02T15:04:06.488Z,9.20
2023-05-02T15:06:35.432Z,12.80
2023-05-02T15:11:29.475Z,13.70
2023-05-02T15:13:59.255Z,2.90
2023-05-02T15:16:26.543Z,6.50
2023-05-02T15:18:53.350Z,9.90
2023-05-02T15:21:20.387Z,6.10
2023-05-02T15:23:47.374Z,4.10
2023-05-02T15:26:14.099Z,6.20
2023-05-02T15:28:42.310Z,17.00
2023-05-02T15:33:36.844Z,4.00
2023-05-02T15:36:03.784Z,4.50
2023-05-02T15:38:30.638Z,4.90
2023-05-02T15:40:58.882Z,3.50
2023-05-02T15:45:53.915Z,5.70
2023-05-02T15:48:21.116Z,13.70
2023-05-02T15:50:47.970Z,7.60
2023-05-02T15:53:15.664Z,25.00
2023-05-02T15:55:42.923Z,4.30
2023-05-02T15:58:09.914Z,5.00
2023-05-02T16:00:36.791Z,4.70
2023-05-02T16:03:04.163Z,9.20
2023-05-02T16:05:32.430Z,12.00
2023-05-02T16:07:59.408Z,8.40
2023-05-02T16:10:26.892Z,5.50
2023-05-02T16:12:53.925Z,7.40
2023-05-02T16:15:20.931Z,8.40
2023-05-02T16:17:48.463Z,10.30
2023-05-02T16:20:16.026Z,6.50
2023-05-02T16:22:46.371Z,40.70
2023-05-02T16:25:14.038Z,30.60
2023-05-02T16:27:41.028Z,21.30
2023-05-02T16:30:08.720Z,19.20
2023-05-02T16:32:36.839Z,26.20
2023-05-02T16:35:06.675Z,12.80
2023-05-02T16:37:34.421Z,10.00
2023-05-02T16:40:01.886Z,18.80
2023-05-02T16:42:29.179Z,12.00
2023-05-02T16:44:56.757Z,10.00
2023-05-02T16:47:23.556Z,11.10
2023-05-02T16:49:55.029Z,18.10
2023-05-02T16:52:21.987Z,8.20
2023-05-02T16:54:48.844Z,8.00
2023-05-02T16:57:20.272Z,8.40
2023-05-02T16:59:48.252Z,9.80
2023-05-02T17:02:15.249Z,13.10
2023-05-02T17:04:42.483Z,9.30
2023-05-02T17:07:11.740Z,9.80
2023-05-02T17:09:40.335Z,7.50
2023-05-02T17:14:34.477Z,19.00
2023-05-02T17:17:01.601Z,40.20
2023-05-02T17:19:29.131Z,29.00
2023-05-02T17:21:57.240Z,18.20
2023-05-02T17:24:24.568Z,11.80
2023-05-02T17:26:51.499Z,9.20
2023-05-02T17:29:18.539Z,20.20
2023-05-02T17:31:45.443Z,11.50
2023-05-02T17:34:12.542Z,16.30
2023-05-02T17:36:43.063Z,17.10
2023-05-02T17:39:12.420Z,16.90
2023-05-02T17:41:39.418Z,17.10
2023-05-02T17:44:06.464Z,12.20
2023-05-02T17:46:33.612Z,13.80
2023-05-02T17:49:00.560Z,12.60
2023-05-02T17:51:27.439Z,14.80
2023-05-02T17:53:54.252Z,23.70
2023-05-02T17:56:21.074Z,20.40
2023-05-02T17:58:48.142Z,25.30
2023-05-02T18:01:15.192Z,28.70
2023-05-02T18:03:42.930Z,21.90
2023-05-02T18:06:15.273Z,12.70
2023-05-02T18:08:43.041Z,15.30
2023-05-02T18:11:19.266Z,17.00
2023-05-02T18:13:46.465Z,21.20
2023-05-02T18:16:13.561Z,14.80
2023-05-02T18:18:41.587Z,10.10
2023-05-02T18:21:11.108Z,11.70
2023-05-02T18:23:39.554Z,8.40
2023-05-02T18:26:13.598Z,8.80
2023-05-02T18:28:44.496Z,10.90
2023-05-02T18:31:17.479Z,19.10
2023-05-02T18:33:46.091Z,17.70
2023-05-02T18:36:15.202Z,16.00
2023-05-02T18:38:41.996Z,20.80
2023-05-02T18:41:09.543Z,16.90
2023-05-02T18:43:36.901Z,25.40
2023-05-02T18:46:03.806Z,38.90
2023-05-02T18:48:31.042Z,20.10
2023-05-02T18:50:57.847Z,17.60
2023-05-02T18:53:25.862Z,25.30
2023-05-02T18:55:53.519Z,21.10
2023-05-02T18:58:21.178Z,12.70
2023-05-02T19:00:48.132Z,32.60
2023-05-02T19:03:15.306Z,21.30
2023-05-02T19:05:42.458Z,13.30
2023-05-02T19:08:09.581Z,15.60
2023-05-02T19:10:37.951Z,15.70
2023-05-02T19:13:05.039Z,17.50
2023-05-02T19:15:33.693Z,13.90
2023-05-02T19:18:00.780Z,20.60
2023-05-02T19:20:29.516Z,18.80
2023-05-02T19:25:44.363Z,33.60
2023-05-02T19:28:11.708Z,22.30
2023-05-02T19:30:42.999Z,22.50
2023-05-02T19:33:10.118Z,13.90
2023-05-02T19:35:37.145Z,11.50
2023-05-02T19:38:04.132Z,17.30
2023-05-02T19:40:31.266Z,8.60
2023-05-02T19:42:58.134Z,10.20
2023-05-02T19:45:24.981Z,13.60
2023-05-02T19:47:51.993Z,11.50
2023-05-02T19:50:18.846Z,12.70
2023-05-02T19:52:45.850Z,16.80
2023-05-02T19:55:13.002Z,6.70
2023-05-02T19:57:40.813Z,26.20
2023-05-02T20:00:08.408Z,19.10
2023-05-02T20:02:39.749Z,24.30
2023-05-02T20:05:07.705Z,6.70
2023-05-02T20:07:35.307Z,12.80
2023-05-02T20:12:31.352Z,9.90
2023-05-02T20:14:58.334Z,5.10
2023-05-02T20:17:25.101Z,5.00
2023-05-02T20:19:51.977Z,6.30
2023-05-02T20:22:18.841Z,8.70
2023-05-02T20:24:45.714Z,10.70
2023-05-02T20:27:12.589Z,5.70
2023-05-02T20:29:39.456Z,11.40
2023-05-02T20:32:06.210Z,9.90
2023-05-02T20:34:35.024Z,10.20
2023-05-02T20:37:04.702Z,12.20
2023-05-02T20:39:32.083Z,9.30
2023-05-02T20:41:59.020Z,19.80
2023-05-02T20:44:27.910Z,13.60
2023-05-02T20:46:54.856Z,9.70
2023-05-02T20:49:21.806Z,6.40
2023-05-02T20:51:49.625Z,11.50
2023-05-02T20:54:18.152Z,12.70
2023-05-02T20:56:44.962Z,7.20
2023-05-02T20:59:11.793Z,7.80
2023-05-02T21:01:38.720Z,10.20
2023-05-02T21:04:05.817Z,7.30
2023-05-02T21:06:34.777Z,8.00
2023-05-02T21:09:02.392Z,8.70
2023-05-02T21:11:29.432Z,7.50
2023-05-02T21:13:56.467Z,9.10
2023-05-02T21:16:23.355Z,8.80
2023-05-02T21:18:50.268Z,8.60
2023-05-02T21:21:17.177Z,8.00
2023-05-02T21:23:44.363Z,8.40
2023-05-02T21:26:11.160Z,6.60
2023-05-02T21:28:39.431Z,12.00
2023-05-02T21:31:06.640Z,7.00
2023-05-02T21:33:33.592Z,14.30
2023-05-02T21:36:00.910Z,7.80
2023-05-02T21:38:27.993Z,13.10
2023-05-02T21:40:55.279Z,6.60
2023-05-02T21:43:22.154Z,12.10
2023-05-02T21:45:49.306Z,11.30
2023-05-02T21:48:16.570Z,11.30
2023-05-02T21:50:43.907Z,8.80
2023-05-02T21:53:12.100Z,11.70
2023-05-02T21:55:39.138Z,11.10
2023-05-02T21:58:06.980Z,10.70
2023-05-02T22:00:38.895Z,11.10
2023-05-02T22:03:11.149Z,12.30
2023-05-02T22:05:39.229Z,9.30
2023-05-02T22:08:07.364Z,13.50
2023-05-02T22:13:06.646Z,9.10
2023-05-02T22:18:01.436Z,9.60
2023-05-02T22:20:28.801Z,8.40
2023-05-02T22:22:55.886Z,7.40
2023-05-02T22:25:22.943Z,7.30
2023-05-02T22:27:49.823Z,9.20
2023-05-02T22:30:16.838Z,8.50
2023-05-02T22:32:43.881Z,13.30
2023-05-02T22:35:10.707Z,7.30
2023-05-02T22:37:37.596Z,6.50
2023-05-02T22:40:07.653Z,10.80
2023-05-02T22:42:34.460Z,8.70
2023-05-02T22:45:01.491Z,10.00
2023-05-02T22:47:28.944Z,10.50
2023-05-02T22:49:58.988Z,14.60
2023-05-02T22:52:26.812Z,11.10
2023-05-02T22:54:53.712Z,8.50
2023-05-02T22:57:20.615Z,6.10
2023-05-02T22:59:47.424Z,5.60
2023-05-02T23:02:14.581Z,9.80
2023-05-02T23:04:41.528Z,7.50
2023-05-02T23:07:08.573Z,5.20
2023-05-02T23:09:35.518Z,8.80
2023-05-02T23:12:03.486Z,7.90
2023-05-02T23:14:31.360Z,4.50
2023-05-02T23:16:58.143Z,9.40
2023-05-02T23:19:25.451Z,6.80
2023-05-02T23:21:52.435Z,20.00
2023-05-02T23:24:19.204Z,7.80
2023-05-02T23:26:46.382Z,9.70
2023-05-02T23:29:13.324Z,6.10
2023-05-02T23:31:40.281Z,9.00
2023-05-02T23:34:07.237Z,11.40
2023-05-02T23:36:35.202Z,6.40
2023-05-02T23:39:02.233Z,7.40
2023-05-02T23:41:29.688Z,12.30
2023-05-02T23:43:56.571Z,12.60
2023-05-02T23:46:24.022Z,9.50
2023-05-02T23:48:50.898Z,12.50
2023-05-02T23:51:17.616Z,9.90
2023-05-02T23:53:44.925Z,8.80
2023-05-02T23:56:11.742Z,8.50
2023-05-02T23:58:38.458Z,8.80
